Time;durP1;ratioP1;P1;durP2;ratioP2;P2;SDS_P1;SDS_P2;PMS_P1;PMS_P2;Temp;Humidity;BMP_temperature;BMP_pressure;BME280_temperature;BME280_humidity;BME280_pressure;Samples;Min_cycle;Max_cycle;Signal;HPM_P1;HPM_P2
2023/09/12 00:00:55;;;;;;;28.87;24.83;;;22.70;7.20;;;;;;5015763;28;20212;-81
2023/09/12 00:03:23;;;;;;;33.57;26.97;;;22.80;3.40;;;;;;5028627;28;20238;-83
2023/09/12 00:05:58;;;;;;;42.90;28.33;;;22.90;1.00;;;;;;5020390;28;20205;-82
2023/09/12 00:08:24;;;;;;;35.90;28.93;;;23.00;1.00;;;;;;5016556;28;20197;-84
2023/09/12 00:11:10;;;;;;;37.03;29.40;;;23.00;1.00;;;;;;5017467;28;20533;-83
2023/09/12 00:13:37;;;;;;;33.27;29.40;;;23.00;1.00;;;;;;5018280;28;20170;-84
2023/09/12 00:16:05;;;;;;;36.93;31.23;;;23.00;1.00;;;;;;5021147;28;20218;-84
2023/09/12 00:18:31;;;;;;;39.23;32.67;;;23.00;1.00;;;;;;5025985;28;20170;-83
2023/09/12 00:21:00;;;;;;;39.43;32.63;;;23.00;1.00;;;;;;5025833;28;20202;-81
2023/09/12 00:23:27;;;;;;;37.63;33.53;;;23.10;1.00;;;;;;5019482;28;20147;-81
2023/09/12 00:25:53;;;;;;;39.83;31.83;;;23.00;1.00;;;;;;5029197;28;20170;-79
2023/09/12 00:28:21;;;;;;;39.10;32.97;;;23.10;1.00;;;;;;5025221;28;20228;-81
2023/09/12 00:30:48;;;;;;;36.83;32.33;;;23.30;1.00;;;;;;5015939;28;20181;-80
2023/09/12 00:33:14;;;;;;;39.60;32.50;;;23.20;1.00;;;;;;5015242;28;20193;-81
2023/09/12 00:35:40;;;;;;;38.43;32.73;;;23.10;1.00;;;;;;5015012;28;20657;-81
2023/09/12 00:38:08;;;;;;;36.30;32.40;;;23.20;1.00;;;;;;5015429;28;20304;-81
2023/09/12 00:40:34;;;;;;;38.97;33.43;;;23.10;1.00;;;;;;5015261;28;20182;-80
2023/09/12 00:42:59;;;;;;;35.60;30.90;;;23.10;1.00;;;;;;5015939;28;20188;-81
2023/09/12 00:45:25;;;;;;;38.20;32.47;;;23.20;1.00;;;;;;5015313;28;20178;-80
2023/09/12 00:47:52;;;;;;;41.77;34.77;;;23.20;1.00;;;;;;5016536;28;20174;-80
2023/09/12 00:50:20;;;;;;;37.90;31.47;;;23.30;1.00;;;;;;5017155;28;20748;-81
2023/09/12 00:52:47;;;;;;;40.67;32.33;;;23.30;1.00;;;;;;5020092;28;20175;-80
2023/09/12 00:55:14;;;;;;;40.43;32.20;;;23.40;1.00;;;;;;5020322;28;20194;-80
2023/09/12 00:57:40;;;;;;;35.13;31.37;;;23.50;1.00;;;;;;5020810;28;20151;-81
2023/09/12 01:00:12;;;;;;;36.67;30.37;;;23.60;1.00;;;;;;5019298;28;20170;-81
2023/09/12 01:02:40;;;;;;;34.73;27.73;;;23.60;1.00;;;;;;5023736;28;20230;-81
2023/09/12 01:05:07;;;;;;;35.20;28.40;;;23.60;1.00;;;;;;5025037;28;20189;-81
2023/09/12 01:07:34;;;;;;;31.77;26.30;;;23.60;1.00;;;;;;5023142;28;20178;-82
2023/09/12 01:10:00;;;;;;;31.00;25.70;;;23.60;1.00;;;;;;5026492;28;20620;-83
2023/09/12 01:12:25;;;;;;;31.03;27.63;;;23.30;1.00;;;;;;5026965;28;20200;-84
2023/09/12 01:14:52;;;;;;;32.83;28.40;;;23.00;1.00;;;;;;5024357;28;20637;-83
2023/09/12 01:17:18;;;;;;;35.63;29.07;;;22.90;1.00;;;;;;5020428;28;20172;-82
2023/09/12 01:19:46;;;;;;;33.53;28.47;;;22.70;10.60;;;;;;5028702;28;20180;-84
2023/09/12 01:22:40;;;;;;;31.83;28.43;;;22.60;17.80;;;;;;5025382;28;20173;-82
2023/09/12 01:25:25;;;;;;;38.13;31.13;;;22.60;21.80;;;;;;5025429;28;20184;-81
2023/09/12 01:27:57;;;;;;;34.77;28.80;;;22.50;31.90;;;;;;5019704;28;20201;-83
2023/09/12 01:30:27;;;;;;;36.77;30.90;;;22.30;38.70;;;;;;5018899;28;20680;-80
2023/09/12 01:32:53;;;;;;;44.60;35.33;;;22.20;48.50;;;;;;5020264;28;20172;-81
2023/09/12 01:35:19;;;;;;;42.33;34.90;;;22.30;50.60;;;;;;5018530;28;20180;-82
2023/09/12 01:37:45;;;;;;;48.40;38.77;;;22.40;49.80;;;;;;5019339;28;20632;-84
2023/09/12 01:40:11;;;;;;;49.60;38.47;;;22.40;47.90;;;;;;5018998;28;20184;-84
2023/09/12 01:42:41;;;;;;;45.97;37.20;;;22.20;55.90;;;;;;5019336;28;20620;-84
2023/09/12 01:45:11;;;;;;;50.50;39.53;;;22.30;55.70;;;;;;5018075;28;20539;-84
2023/09/12 01:47:39;;;;;;;45.77;37.60;;;22.30;55.60;;;;;;5019794;28;20199;-84
2023/09/12 01:50:12;;;;;;;50.17;37.83;;;22.30;58.50;;;;;;5018833;28;20221;-85
2023/09/12 01:52:38;;;;;;;48.80;37.27;;;22.20;59.50;;;;;;5017189;28;20171;-82
2023/09/12 01:55:06;;;;;;;47.73;36.33;;;22.20;61.00;;;;;;5018242;28;20227;-82
2023/09/12 01:57:35;;;;;;;41.03;33.47;;;22.10;65.60;;;;;;5017756;28;20180;-82
2023/09/12 02:00:01;;;;;;;37.80;31.10;;;22.10;66.40;;;;;;5016908;28;20188;-82
2023/09/12 02:02:26;;;;;;;35.73;30.90;;;21.90;71.40;;;;;;5017110;28;20208;-81
2023/09/12 02:05:10;;;;;;;35.87;29.90;;;21.50;80.80;;;;;;5018446;28;20176;-81
2023/09/12 02:07:39;;;;;;;32.83;28.10;;;21.50;88.60;;;;;;5017621;28;20217;-82
2023/09/12 02:10:05;;;;;;;36.17;29.23;;;21.40;83.80;;;;;;5016782;28;20686;-82
2023/09/12 02:12:32;;;;;;;37.23;29.63;;;21.30;84.20;;;;;;5018362;28;20171;-81
2023/09/12 02:14:57;;;;;;;39.50;30.40;;;21.50;81.70;;;;;;5019335;28;20189;-83
2023/09/12 02:17:23;;;;;;;35.23;28.63;;;21.40;78.80;;;;;;5018653;28;20237;-82
2023/09/12 02:19:51;;;;;;;39.20;29.27;;;21.30;83.40;;;;;;5017863;28;20199;-82
2023/09/12 02:22:17;;;;;;;37.50;28.93;;;21.20;85.20;;;;;;5018027;28;20266;-84
2023/09/12 02:24:42;;;;;;;38.60;29.60;;;21.20;89.00;;;;;;5018780;28;20186;-82
2023/09/12 02:27:08;;;;;;;38.77;30.07;;;21.00;91.40;;;;;;5020807;28;20176;-82
2023/09/12 02:29:35;;;;;;;35.07;28.87;;;20.90;94.60;;;;;;5024899;28;20219;-84
2023/09/12 02:32:00;;;;;;;33.50;27.80;;;20.90;95.70;;;;;;5025693;28;20218;-82
2023/09/12 02:34:26;;;;;;;34.17;28.00;;;21.00;93.90;;;;;;5022029;28;20622;-82
2023/09/12 02:36:53;;;;;;;32.70;27.37;;;21.10;90.50;;;;;;5022569;28;20180;-84
2023/09/12 02:39:18;;;;;;;34.77;27.30;;;21.20;85.30;;;;;;5017345;28;20174;-81
2023/09/12 02:41:44;;;;;;;32.67;26.77;;;21.30;81.50;;;;;;5017005;28;20171;-81
2023/09/12 02:44:11;;;;;;;30.20;26.00;;;21.40;65.30;;;;;;5018345;28;20165;-81
2023/09/12 02:46:37;;;;;;;28.50;25.00;;;21.30;59.30;;;;;;5017842;28;20169;-80
2023/09/12 02:49:03;;;;;;;34.53;26.77;;;21.30;59.90;;;;;;5016397;28;20310;-80
2023/09/12 02:51:29;;;;;;;31.60;26.80;;;21.20;60.20;;;;;;5017476;28;20197;-82
2023/09/12 02:53:55;;;;;;;33.27;26.73;;;21.30;60.20;;;;;;5018402;28;20162;-81
2023/09/12 02:56:21;;;;;;;33.00;25.83;;;21.30;57.00;;;;;;5017569;28;20734;-81
2023/09/12 02:58:48;;;;;;;29.03;24.20;;;21.30;55.20;;;;;;5017788;28;20215;-80
2023/09/12 03:01:18;;;;;;;28.23;23.10;;;21.30;58.50;;;;;;5017416;28;20189;-83
2023/09/12 03:03:46;;;;;;;29.87;23.83;;;21.30;63.60;;;;;;5015668;28;20183;-82
2023/09/12 03:06:13;;;;;;;29.67;23.07;;;21.40;65.90;;;;;;5015283;28;20538;-81
2023/09/12 03:08:43;;;;;;;28.83;24.83;;;21.50;68.00;;;;;;5016685;28;20198;-81
2023/09/12 03:11:09;;;;;;;28.37;23.93;;;21.40;53.10;;;;;;5016960;28;20182;-81
2023/09/12 03:13:37;;;;;;;28.80;23.17;;;21.50;38.50;;;;;;5016516;28;20171;-80
2023/09/12 03:16:03;;;;;;;28.10;23.80;;;21.60;34.10;;;;;;5018201;28;20166;-81
2023/09/12 03:18:29;;;;;;;32.03;24.90;;;21.70;30.30;;;;;;5019833;28;20193;-81
2023/09/12 03:20:55;;;;;;;29.57;23.63;;;21.80;28.00;;;;;;5036884;28;20178;-79
2023/09/12 03:23:22;;;;;;;26.87;23.00;;;21.80;30.60;;;;;;5026703;28;20254;-81
2023/09/12 03:25:47;;;;;;;27.87;23.33;;;21.70;40.50;;;;;;5017939;28;20172;-81
2023/09/12 03:28:15;;;;;;;28.03;23.87;;;21.80;40.40;;;;;;5017581;28;20204;-83
2023/09/12 03:30:44;;;;;;;26.33;23.17;;;21.90;34.70;;;;;;5018574;28;20187;-82
2023/09/12 03:33:09;;;;;;;27.90;23.50;;;21.90;33.20;;;;;;5017983;28;20178;-79
2023/09/12 03:35:36;;;;;;;27.27;23.23;;;21.90;33.00;;;;;;5016243;28;20192;-80
2023/09/12 03:38:02;;;;;;;25.40;21.50;;;22.00;26.50;;;;;;5015529;28;20231;-81
2023/09/12 03:40:32;;;;;;;27.53;21.53;;;22.00;20.80;;;;;;5015200;28;20179;-80
2023/09/12 03:42:57;;;;;;;26.13;21.47;;;22.00;15.10;;;;;;5026213;28;20183;-81
2023/09/12 03:45:24;;;;;;;22.80;20.33;;;22.00;17.00;;;;;;5037366;28;20169;-79
2023/09/12 03:47:49;;;;;;;22.57;18.93;;;22.00;11.10;;;;;;5024988;28;20551;-83
2023/09/12 03:50:15;;;;;;;22.00;19.27;;;22.10;7.70;;;;;;5017722;28;20211;-82
2023/09/12 03:52:43;;;;;;;21.77;18.40;;;22.10;7.30;;;;;;5016334;28;20173;-82
2023/09/12 03:55:12;;;;;;;23.20;18.63;;;22.10;5.50;;;;;;5017012;28;20193;-81
2023/09/12 03:57:37;;;;;;;23.63;19.07;;;22.00;6.50;;;;;;5014488;28;20272;-82
2023/09/12 04:00:05;;;;;;;24.30;18.80;;;21.90;8.50;;;;;;5014790;28;20208;-82
2023/09/12 04:02:31;;;;;;;21.33;18.73;;;21.90;7.20;;;;;;5013955;28;20284;-81
2023/09/12 04:04:59;;;;;;;22.43;18.53;;;22.10;4.20;;;;;;5014802;28;20209;-80
2023/09/12 04:07:24;;;;;;;24.70;19.17;;;22.00;1.80;;;;;;5015494;28;20178;-81
2023/09/12 04:09:50;;;;;;;21.73;19.00;;;22.00;1.00;;;;;;5014382;28;20200;-81
2023/09/12 04:12:16;;;;;;;23.40;19.37;;;22.00;1.00;;;;;;5014893;28;20213;-81
2023/09/12 04:14:42;;;;;;;22.90;19.57;;;22.10;1.00;;;;;;5015572;28;20260;-81
2023/09/12 04:17:08;;;;;;;22.83;18.63;;;21.90;1.00;;;;;;5016555;28;20161;-78
2023/09/12 04:19:35;;;;;;;22.83;20.00;;;22.00;1.00;;;;;;5015000;28;20273;-81
2023/09/12 04:22:01;;;;;;;25.73;19.60;;;22.00;1.00;;;;;;5014818;28;20180;-81
2023/09/12 04:24:26;;;;;;;25.30;20.23;;;22.00;1.00;;;;;;5017022;28;20180;-84
2023/09/12 04:26:53;;;;;;;22.87;20.43;;;22.00;1.00;;;;;;5019565;28;20259;-83
2023/09/12 04:29:19;;;;;;;23.03;20.57;;;22.20;1.00;;;;;;5019572;28;20216;-84
2023/09/12 04:31:45;;;;;;;25.77;21.07;;;22.10;1.00;;;;;;5020656;28;20164;-83
2023/09/12 04:34:10;;;;;;;25.77;21.03;;;22.10;1.00;;;;;;5021576;28;20179;-84
2023/09/12 04:36:36;;;;;;;26.10;21.53;;;22.00;1.00;;;;;;5021267;28;20174;-83
2023/09/12 04:39:02;;;;;;;25.77;20.50;;;22.00;1.00;;;;;;5020873;28;20182;-83
2023/09/12 04:41:27;;;;;;;24.73;21.17;;;21.90;1.00;;;;;;5020752;28;20671;-83
2023/09/12 04:43:53;;;;;;;22.93;20.07;;;21.90;1.00;;;;;;5031320;28;20172;-83
2023/09/12 04:46:19;;;;;;;26.30;20.80;;;22.00;1.00;;;;;;5022802;28;20178;-84
2023/09/12 04:48:44;;;;;;;23.60;20.83;;;21.90;1.00;;;;;;5021006;28;20281;-83
2023/09/12 04:51:10;;;;;;;28.03;21.57;;;22.00;1.00;;;;;;5020973;28;20692;-87
2023/09/12 04:53:36;;;;;;;22.50;20.10;;;21.90;1.00;;;;;;5019790;28;20649;-87
2023/09/12 04:56:03;;;;;;;25.87;21.30;;;22.00;1.00;;;;;;5016109;28;20238;-85
2023/09/12 04:58:28;;;;;;;25.50;19.57;;;21.90;1.00;;;;;;5017808;28;20586;-84
2023/09/12 05:00:55;;;;;;;26.13;19.47;;;22.00;1.00;;;;;;5017207;28;20287;-83
2023/09/12 05:03:21;;;;;;;26.07;21.53;;;22.00;1.00;;;;;;5018583;28;20185;-86
2023/09/12 05:05:48;;;;;;;26.57;21.47;;;22.00;1.00;;;;;;5016856;28;20181;-84
2023/09/12 05:08:15;;;;;;;27.13;22.30;;;21.90;1.00;;;;;;5019214;28;20196;-85
2023/09/12 05:10:43;;;;;;;29.43;22.67;;;21.90;1.00;;;;;;5016887;28;20200;-84
2023/09/12 05:13:09;;;;;;;28.17;22.63;;;21.90;1.00;;;;;;5017271;28;20648;-86
2023/09/12 05:15:36;;;;;;;23.63;20.43;;;21.90;1.00;;;;;;5017609;28;20219;-86
2023/09/12 05:18:02;;;;;;;27.87;22.63;;;21.80;4.70;;;;;;5018908;28;20174;-86
2023/09/12 05:20:28;;;;;;;31.20;24.73;;;21.70;1.10;;;;;;5024480;28;20191;-86
2023/09/12 05:22:54;;;;;;;29.83;25.53;;;21.70;1.00;;;;;;5004757;28;20175;-86
2023/09/12 05:25:20;;;;;;;34.60;25.63;;;21.70;1.00;;;;;;5019102;28;20183;-87
2023/09/12 05:27:46;;;;;;;29.90;25.33;;;21.70;1.00;;;;;;5017902;28;20184;-85
2023/09/12 05:30:12;;;;;;;29.80;25.37;;;21.60;7.10;;;;;;5018417;28;20214;-89
2023/09/12 05:32:45;;;;;;;31.03;25.03;;;21.50;14.70;;;;;;5021779;28;20511;-88
2023/09/12 05:35:11;;;;;;;32.83;25.50;;;21.50;16.10;;;;;;5022044;28;20650;-87
2023/09/12 05:37:38;;;;;;;32.03;26.40;;;21.60;17.30;;;;;;5017616;28;20171;-83
2023/09/12 05:40:10;;;;;;;34.23;26.70;;;21.50;20.40;;;;;;5022254;28;20229;-82
2023/09/12 05:42:36;;;;;;;36.87;27.07;;;21.40;19.30;;;;;;5017911;28;20167;-85
2023/09/12 05:45:02;;;;;;;34.20;26.97;;;21.40;21.30;;;;;;5015517;28;20603;-81
2023/09/12 05:47:28;;;;;;;33.90;27.73;;;21.40;20.70;;;;;;5017149;28;20175;-84
2023/09/12 05:49:54;;;;;;;32.67;26.57;;;21.30;19.90;;;;;;5017987;28;20290;-83
2023/09/12 05:52:20;;;;;;;33.57;25.17;;;21.40;23.30;;;;;;5022220;28;20171;-82
2023/09/12 05:54:46;;;;;;;29.70;24.37;;;21.40;25.10;;;;;;5021160;28;20542;-84
2023/09/12 05:57:11;;;;;;;35.87;26.90;;;21.50;29.60;;;;;;5007876;28;20271;-85
2023/09/12 05:59:39;;;;;;;28.57;24.77;;;21.50;25.30;;;;;;5016281;28;20662;-86
2023/09/12 06:02:06;;;;;;;33.43;26.20;;;21.50;20.90;;;;;;5016245;28;20344;-86
2023/09/12 06:04:32;;;;;;;36.13;26.20;;;21.60;17.40;;;;;;5015806;28;20185;-80
2023/09/12 06:07:14;;;;;;;34.83;25.77;;;21.60;15.50;;;;;;5014495;28;20179;-81
2023/09/12 06:09:40;;;;;;;31.70;25.07;;;21.60;15.80;;;;;;5015549;28;20624;-83
2023/09/12 06:12:12;;;;;;;33.37;26.37;;;21.60;12.20;;;;;;5016261;28;20183;-80
2023/09/12 06:14:37;;;;;;;34.23;26.57;;;21.70;9.70;;;;;;5016224;28;20625;-82
2023/09/12 06:17:03;;;;;;;30.67;26.13;;;21.60;10.80;;;;;;5017615;28;20260;-86
2023/09/12 06:19:30;;;;;;;32.57;25.20;;;21.60;12.60;;;;;;5017269;28;20176;-88
2023/09/12 06:21:56;;;;;;;30.13;23.83;;;21.40;19.90;;;;;;5018962;28;20236;-88
2023/09/12 06:24:22;;;;;;;28.27;23.37;;;21.40;21.90;;;;;;5016819;28;20695;-86
2023/09/12 06:26:48;;;;;;;28.57;23.80;;;21.30;21.10;;;;;;5014634;28;20542;-85
2023/09/12 06:29:14;;;;;;;33.00;23.57;;;21.60;12.90;;;;;;5013833;28;20698;-86
2023/09/12 06:31:43;;;;;;;25.07;22.40;;;21.60;15.10;;;;;;5015005;28;20763;-85
2023/09/12 06:34:10;;;;;;;29.60;24.13;;;21.60;10.30;;;;;;5016030;28;20172;-87
2023/09/12 06:36:38;;;;;;;28.50;22.90;;;21.70;2.10;;;;;;5017864;28;20260;-87
2023/09/12 06:39:05;;;;;;;28.53;23.43;;;21.50;7.90;;;;;;5019067;28;20177;-87
2023/09/12 06:41:31;;;;;;;27.10;21.63;;;21.60;9.10;;;;;;5028645;28;20208;-83
2023/09/12 06:43:58;;;;;;;25.37;20.37;;;21.70;10.60;;;;;;5038342;28;20178;-85
2023/09/12 06:46:50;;;;;;;26.33;21.80;;;21.80;7.50;;;;;;5023162;28;20188;-83
2023/09/12 06:49:16;;;;;;;27.50;21.50;;;21.90;2.50;;;;;;5015190;28;20231;-83
2023/09/12 06:51:45;;;;;;;28.63;22.97;;;21.90;1.00;;;;;;5015853;28;20185;-84
2023/09/12 06:54:12;;;;;;;32.10;23.23;;;21.90;1.00;;;;;;5016403;28;20160;-83
2023/09/12 06:56:38;;;;;;;28.87;23.20;;;21.90;1.00;;;;;;5013785;28;20647;-84
2023/09/12 06:59:04;;;;;;;27.50;22.33;;;21.90;1.00;;;;;;5014716;28;20221;-84
2023/09/12 07:01:31;;;;;;;27.57;23.00;;;21.90;1.00;;;;;;5014898;28;20196;-84
2023/09/12 07:03:57;;;;;;;31.37;23.60;;;21.80;1.00;;;;;;5014197;28;20171;-85
2023/09/12 07:06:23;;;;;;;28.87;22.33;;;21.90;1.00;;;;;;5023082;28;20167;-83
2023/09/12 07:08:49;;;;;;;26.23;22.33;;;21.80;1.00;;;;;;5019037;28;20206;-83
2023/09/12 07:11:15;;;;;;;28.97;24.63;;;21.80;1.00;;;;;;5015773;28;20171;-84
2023/09/12 07:13:41;;;;;;;27.60;23.50;;;21.70;1.00;;;;;;5016223;28;20181;-83
2023/09/12 07:16:07;;;;;;;30.53;25.57;;;21.70;4.30;;;;;;5014935;28;20175;-83
2023/09/12 07:18:32;;;;;;;28.10;23.17;;;21.50;11.90;;;;;;5014891;28;20164;-83
2023/09/12 07:21:03;;;;;;;28.97;22.93;;;21.50;19.20;;;;;;5014986;28;20164;-83
2023/09/12 07:23:30;;;;;;;26.83;22.93;;;21.50;21.40;;;;;;5014556;28;20179;-84
2023/09/12 07:26:04;;;;;;;29.47;25.00;;;21.60;18.20;;;;;;5013619;28;20264;-82
2023/09/12 07:28:31;;;;;;;27.13;21.80;;;21.70;11.00;;;;;;5015417;28;20253;-83
2023/09/12 07:31:00;;;;;;;24.70;21.73;;;21.70;1.00;;;;;;5013558;28;20183;-83
2023/09/12 07:33:27;;;;;;;26.83;22.33;;;21.80;1.00;;;;;;5014883;28;20886;-82
2023/09/12 07:35:53;;;;;;;25.33;21.23;;;21.80;2.20;;;;;;5014683;28;20590;-82
2023/09/12 07:38:21;;;;;;;27.70;21.77;;;21.80;6.80;;;;;;5015130;28;20172;-79
2023/09/12 07:40:46;;;;;;;27.83;23.40;;;21.80;1.00;;;;;;5013147;28;20181;-81
2023/09/12 07:43:12;;;;;;;24.13;21.50;;;21.90;1.00;;;;;;5015366;28;20180;-84
2023/09/12 07:45:38;;;;;;;28.87;21.90;;;21.80;1.00;;;;;;5015156;28;20577;-85
2023/09/12 07:48:08;;;;;;;27.20;22.30;;;21.90;1.30;;;;;;5018927;28;20267;-84
2023/09/12 07:50:34;;;;;;;26.00;21.80;;;21.90;1.00;;;;;;5017619;28;20241;-82
2023/09/12 07:53:02;;;;;;;29.23;22.43;;;22.00;1.00;;;;;;5018329;28;20671;-84
2023/09/12 07:55:30;;;;;;;27.13;21.07;;;22.00;1.00;;;;;;5017880;28;20204;-82
2023/09/12 07:57:56;;;;;;;23.97;21.37;;;22.10;1.00;;;;;;5016555;28;20163;-80
2023/09/12 08:00:22;;;;;;;27.37;22.23;;;22.10;1.00;;;;;;5015959;28;20181;-79
2023/09/12 08:02:48;;;;;;;23.10;20.00;;;22.10;1.00;;;;;;5015536;28;20273;-83
2023/09/12 08:05:14;;;;;;;21.67;18.83;;;22.20;1.00;;;;;;5014794;28;20165;-84
2023/09/12 08:07:40;;;;;;;20.10;17.53;;;22.20;1.00;;;;;;5015177;28;20177;-84
2023/09/12 08:10:06;;;;;;;21.03;17.53;;;22.20;1.00;;;;;;5014091;28;20217;-86
2023/09/12 08:12:32;;;;;;;18.93;15.50;;;22.40;1.00;;;;;;5015364;28;20208;-82
2023/09/12 08:14:58;;;;;;;19.53;17.17;;;22.60;1.00;;;;;;5016754;28;20182;-83
2023/09/12 08:17:27;;;;;;;18.33;14.53;;;22.80;1.00;;;;;;5017953;28;20189;-84
2023/09/12 08:19:53;;;;;;;18.23;15.83;;;22.90;1.00;;;;;;5017602;28;20225;-82
2023/09/12 08:22:19;;;;;;;20.27;17.00;;;23.10;1.00;;;;;;5015953;28;20178;-82
2023/09/12 08:24:45;;;;;;;21.23;16.07;;;23.20;1.00;;;;;;5016057;28;20174;-81
2023/09/12 08:27:11;;;;;;;17.93;16.03;;;23.40;1.00;;;;;;5016594;28;20166;-80
2023/09/12 08:29:38;;;;;;;24.70;18.07;;;23.50;1.00;;;;;;5015567;28;20202;-83
2023/09/12 08:32:04;;;;;;;27.73;19.53;;;23.60;1.00;;;;;;5016866;28;20171;-80
2023/09/12 08:34:29;;;;;;;24.40;19.43;;;23.70;1.00;;;;;;5015167;28;20182;-85
2023/09/12 08:36:55;;;;;;;23.13;18.53;;;23.70;1.00;;;;;;5016526;28;20178;-83
2023/09/12 08:39:39;;;;;;;25.90;18.03;;;23.70;1.00;;;;;;5013966;28;20205;-83
2023/09/12 08:42:06;;;;;;;21.47;18.47;;;23.70;1.00;;;;;;5014407;28;20198;-83
2023/09/12 08:44:31;;;;;;;30.20;21.97;;;23.80;1.00;;;;;;5014392;28;20173;-83
2023/09/12 08:46:59;;;;;;;24.10;19.73;;;23.90;1.00;;;;;;5014601;28;20243;-82
2023/09/12 08:49:25;;;;;;;28.87;19.50;;;24.10;1.00;;;;;;5013306;28;20229;-78
2023/09/12 08:51:51;;;;;;;24.57;18.03;;;24.20;1.00;;;;;;5014308;28;20518;-81
2023/09/12 08:54:18;;;;;;;27.37;19.50;;;24.40;1.00;;;;;;5013279;28;20194;-82
2023/09/12 08:56:45;;;;;;;25.37;19.70;;;24.40;1.00;;;;;;5014999;28;20186;-83
2023/09/12 08:59:12;;;;;;;25.03;20.00;;;24.50;1.00;;;;;;5014257;28;20179;-83
2023/09/12 09:01:40;;;;;;;25.93;20.47;;;24.60;1.00;;;;;;5014339;28;20178;-81
2023/09/12 09:04:06;;;;;;;25.57;19.57;;;24.60;1.00;;;;;;5014490;28;20174;-82
2023/09/12 09:06:37;;;;;;;26.10;19.23;;;24.70;1.00;;;;;;5016100;28;20646;-81
2023/09/12 09:09:07;;;;;;;30.43;20.40;;;24.90;1.00;;;;;;5015264;28;20218;-82
2023/09/12 09:11:34;;;;;;;33.60;23.13;;;25.00;1.00;;;;;;5019432;28;20584;-84
2023/09/12 09:14:03;;;;;;;25.50;21.37;;;25.00;1.00;;;;;;5020158;28;20170;-83
2023/09/12 09:16:31;;;;;;;29.33;21.87;;;25.00;1.00;;;;;;5018002;28;20760;-83
2023/09/12 09:19:05;;;;;;;25.03;20.47;;;25.10;1.00;;;;;;5017573;28;20257;-84
2023/09/12 09:21:32;;;;;;;27.70;19.40;;;25.10;1.00;;;;;;5017625;28;20181;-82
2023/09/12 09:24:09;;;;;;;23.83;17.63;;;25.20;1.00;;;;;;5017458;28;20162;-84
2023/09/12 09:26:48;;;;;;;20.67;16.10;;;25.30;1.00;;;;;;5016986;28;20182;-84
2023/09/12 09:29:19;;;;;;;23.77;18.07;;;25.30;1.00;;;;;;5016891;28;20665;-81
2023/09/12 09:31:47;;;;;;;22.47;19.03;;;25.30;1.00;;;;;;5016606;28;20167;-81
2023/09/12 09:34:19;;;;;;;22.73;17.97;;;25.40;1.00;;;;;;5016908;28;20167;-81
2023/09/12 09:36:50;;;;;;;25.43;20.10;;;25.40;1.00;;;;;;5016775;28;20167;-81
2023/09/12 09:39:31;;;;;;;25.90;19.43;;;25.40;1.00;;;;;;5016135;28;20509;-81
2023/09/12 09:41:57;;;;;;;23.57;19.10;;;25.30;1.00;;;;;;5015011;28;20197;-82
2023/09/12 09:44:26;;;;;;;23.47;20.17;;;25.40;1.00;;;;;;5016205;28;20158;-82
2023/09/12 09:46:58;;;;;;;25.03;19.20;;;25.40;1.00;;;;;;5016185;28;20645;-82
2023/09/12 09:49:24;;;;;;;25.23;19.53;;;25.40;1.00;;;;;;5016297;28;20773;-80
2023/09/12 09:51:49;;;;;;;21.17;16.63;;;25.40;1.00;;;;;;5016101;28;20201;-82
2023/09/12 09:54:15;;;;;;;19.70;16.03;;;25.40;1.00;;;;;;5014647;28;20178;-81
2023/09/12 09:56:48;;;;;;;21.13;14.67;;;25.50;1.00;;;;;;5016080;28;20558;-80
2023/09/12 09:59:19;;;;;;;15.37;13.53;;;25.70;1.00;;;;;;5015265;28;20228;-81
2023/09/12 10:01:45;;;;;;;18.30;13.77;;;25.80;1.00;;;;;;5015377;28;20196;-81
2023/09/12 10:04:12;;;;;;;19.17;16.10;;;25.60;1.00;;;;;;5030332;28;20307;-80
2023/09/12 10:06:39;;;;;;;23.03;18.33;;;25.50;1.00;;;;;;5024564;28;20178;-83
2023/09/12 10:09:13;;;;;;;21.87;17.57;;;25.50;1.00;;;;;;5017374;28;20564;-84
2023/09/12 10:11:50;;;;;;;19.17;14.47;;;25.40;1.00;;;;;;5017453;28;20174;-84
2023/09/12 10:14:30;;;;;;;23.23;16.20;;;25.40;1.00;;;;;;5017399;28;20537;-84
2023/09/12 10:17:03;;;;;;;18.27;15.10;;;25.40;1.00;;;;;;5019018;28;20162;-85
2023/09/12 10:19:54;;;;;;;16.93;14.63;;;25.50;1.00;;;;;;5020270;28;20166;-84
2023/09/12 10:22:31;;;;;;;15.37;13.70;;;25.80;1.00;;;;;;5026130;28;20162;-84
2023/09/12 10:24:58;;;;;;;14.30;12.80;;;26.00;1.00;;;;;;5026465;28;20196;-84
2023/09/12 10:27:25;;;;;;;17.23;13.83;;;26.10;1.00;;;;;;5032649;28;20617;-83
2023/09/12 10:29:56;;;;;;;17.70;13.37;;;26.00;1.00;;;;;;5030122;28;20287;-85
2023/09/12 10:32:23;;;;;;;14.20;11.83;;;26.10;1.00;;;;;;5017613;28;20165;-84
2023/09/12 10:34:52;;;;;;;9.40;6.93;;;26.10;1.00;;;;;;5016824;28;20166;-83
2023/09/12 10:37:48;;;;;;;11.65;9.13;;;25.90;99.90;;;;;;5016672;28;20274;-83
2023/09/12 10:40:20;;;;;;;13.60;10.10;;;25.80;1.00;;;;;;5014368;28;20182;-83
2023/09/12 10:42:48;;;;;;;11.00;8.33;;;25.50;1.00;;;;;;5015097;28;20170;-83
2023/09/12 10:45:14;;;;;;;10.50;8.07;;;25.40;1.00;;;;;;5015080;28;20167;-83
2023/09/12 10:47:40;;;;;;;9.53;7.20;;;25.40;1.00;;;;;;5014879;28;20579;-83
2023/09/12 10:50:08;;;;;;;8.47;7.57;;;25.40;1.00;;;;;;5013717;28;20296;-83
2023/09/12 10:52:45;;;;;;;8.20;6.40;;;25.50;1.00;;;;;;5015258;28;20305;-85
2023/09/12 10:55:19;;;;;;;10.23;6.93;;;25.70;1.00;;;;;;5015221;28;20201;-84
2023/09/12 10:58:02;;;;;;;9.00;7.43;;;25.90;1.00;;;;;;5016686;28;20255;-85
2023/09/12 11:00:28;;;;;;;12.03;8.90;;;26.10;99.90;;;;;;5016862;28;20182;-85
2023/09/12 11:02:54;;;;;;;9.50;8.27;;;26.20;99.90;;;;;;5015790;28;20197;-88
2023/09/12 11:05:29;;;;;;;10.57;8.10;;;26.40;99.90;;;;;;5015549;28;20168;-86
2023/09/12 11:08:01;;;;;;;11.70;8.68;;;26.50;99.90;;;;;;5016654;28;20178;-88
2023/09/12 11:10:31;;;;;;;10.97;8.13;;;26.50;99.90;;;;;;5017401;28;20665;-84
2023/09/12 11:12:57;;;;;;;10.73;9.25;;;26.30;99.90;;;;;;5014905;28;20177;-90
2023/09/12 11:15:28;;;;;;;11.53;8.27;;;26.30;99.90;;;;;;5016402;28;20179;-85
2023/09/12 11:18:07;;;;;;;11.87;8.63;;;26.50;99.90;;;;;;5015545;28;20194;-84
2023/09/12 11:20:59;;;;;;;11.07;8.77;;;26.80;99.90;;;;;;5015834;28;20548;-88
2023/09/12 11:23:26;;;;;;;14.77;9.47;;;26.60;99.90;;;;;;5016004;28;20169;-88
2023/09/12 11:26:06;;;;;;;12.07;8.20;;;26.50;99.90;;;;;;5016038;28;20170;-84
2023/09/12 11:28:32;;;;;;;10.73;8.80;;;26.20;99.90;;;;;;5016499;28;20158;-82
2023/09/12 11:30:58;;;;;;;10.63;7.93;;;26.10;99.90;;;;;;5015957;28;20185;-87
2023/09/12 11:33:27;;;;;;;7.57;6.57;;;26.10;99.90;;;;;;5017255;28;20209;-89
2023/09/12 11:36:03;;;;;;;8.07;6.93;;;26.30;99.90;;;;;;5016205;28;20208;-89
2023/09/12 11:38:31;;;;;;;8.80;6.27;;;26.60;99.90;;;;;;5016837;28;20162;-86
2023/09/12 11:40:58;;;;;;;5.93;5.33;;;26.60;99.90;;;;;;5015330;28;20265;-83
2023/09/12 11:43:27;;;;;;;6.77;5.47;;;26.60;99.90;;;;;;5015025;28;20694;-83
2023/09/12 11:45:54;;;;;;;8.93;6.90;;;26.80;99.90;;;;;;5016540;28;20168;-83
2023/09/12 11:48:20;;;;;;;8.17;7.27;;;26.60;99.90;;;;;;5016025;28;20708;-80
2023/09/12 11:50:53;;;;;;;9.50;6.63;;;26.50;99.90;;;;;;5014153;28;20218;-81
2023/09/12 11:53:25;;;;;;;8.73;6.40;;;26.40;99.90;;;;;;5014703;28;20306;-80
2023/09/12 11:55:56;;;;;;;7.67;5.53;;;26.30;99.90;;;;;;5013379;28;20319;-80
2023/09/12 11:58:22;;;;;;;7.90;6.90;;;26.50;99.90;;;;;;5014579;28;20565;-83
2023/09/12 12:00:52;;;;;;;8.53;5.87;;;26.60;99.90;;;;;;5014543;28;20268;-82
2023/09/12 12:03:23;;;;;;;6.75;5.72;;;26.80;99.90;;;;;;5014318;28;20264;-86
2023/09/12 12:05:50;;;;;;;7.67;6.30;;;26.80;99.90;;;;;;5014496;28;20639;-80
2023/09/12 12:08:17;;;;;;;9.07;7.10;;;26.80;99.90;;;;;;5013511;28;20178;-83
2023/09/12 12:10:43;;;;;;;8.73;6.17;;;26.70;99.90;;;;;;5014075;28;20202;-81
2023/09/12 12:13:16;;;;;;;11.57;6.00;;;26.70;99.90;;;;;;5013725;28;20696;-83
2023/09/12 12:15:42;;;;;;;7.87;5.07;;;26.80;99.90;;;;;;5013769;28;20718;-81
2023/09/12 12:18:08;;;;;;;8.33;5.33;;;27.00;99.90;;;;;;5013940;28;20253;-81
2023/09/12 12:20:33;;;;;;;8.23;5.50;;;27.00;99.90;;;;;;5012716;28;20587;-85
2023/09/12 12:22:59;;;;;;;9.10;6.83;;;27.10;99.90;;;;;;5013763;28;20185;-85
2023/09/12 12:25:25;;;;;;;9.67;6.23;;;26.80;99.90;;;;;;5012466;28;20194;-84
2023/09/12 12:27:51;;;;;;;9.07;5.93;;;26.70;99.90;;;;;;5015379;28;20181;-84
2023/09/12 12:30:18;;;;;;;6.30;4.73;;;26.60;99.90;;;;;;5014744;28;20226;-86
2023/09/12 12:32:46;;;;;;;8.95;6.40;;;26.80;99.90;;;;;;5013722;28;20180;-84
2023/09/12 12:35:22;;;;;;;8.27;6.17;;;26.90;99.90;;;;;;5013774;28;20261;-82
2023/09/12 12:37:49;;;;;;;8.90;5.80;;;26.80;99.90;;;;;;5013896;28;20167;-82
2023/09/12 12:40:16;;;;;;;8.20;5.87;;;26.60;99.90;;;;;;5013259;28;20186;-83